Time;durP1;ratioP1;P1;durP2;ratioP2;P2;SDS_P1;SDS_P2;PMS_P1;PMS_P2;Temp;Humidity;BMP_temperature;BMP_pressure;BME280_temperature;BME280_humidity;BME280_pressure;Samples;Min_cycle;Max_cycle;Signal;HPM_P1;HPM_P2
2023/06/19 00:02:20;;;;;;;10.57;6.75;;;22.60;86.30;;;;;;5116730;27;20096;-74
2023/06/19 00:04:46;;;;;;;9.83;6.40;;;22.60;86.20;;;;;;5135058;27;20043;-75
2023/06/19 00:07:12;;;;;;;10.73;6.83;;;22.60;86.10;;;;;;5115122;27;20047;-72
2023/06/19 00:09:38;;;;;;;10.70;6.50;;;22.50;86.80;;;;;;5079442;28;20055;-74
2023/06/19 00:12:04;;;;;;;8.57;6.40;;;22.50;86.00;;;;;;5062988;28;20055;-73
2023/06/19 00:14:30;;;;;;;10.32;6.57;;;22.50;85.90;;;;;;5114526;28;20043;-72
2023/06/19 00:16:56;;;;;;;10.23;6.88;;;22.50;85.90;;;;;;5096083;28;20050;-73
2023/06/19 00:19:22;;;;;;;14.50;7.00;;;22.40;85.60;;;;;;5106385;27;20483;-74
2023/06/19 00:21:48;;;;;;;10.50;6.95;;;22.50;86.10;;;;;;5099433;27;20059;-74
2023/06/19 00:24:13;;;;;;;10.50;6.20;;;22.50;85.70;;;;;;5117028;27;20508;-74
2023/06/19 00:26:40;;;;;;;10.97;6.53;;;22.50;85.70;;;;;;5135863;27;20049;-73
2023/06/19 00:29:07;;;;;;;11.02;7.15;;;22.50;85.50;;;;;;5118155;27;20047;-73
2023/06/19 00:31:32;;;;;;;9.70;6.68;;;22.50;85.40;;;;;;5119326;27;20095;-76
2023/06/19 00:33:58;;;;;;;11.27;6.50;;;22.50;85.50;;;;;;5120564;27;20138;-74
2023/06/19 00:36:25;;;;;;;10.03;6.67;;;22.50;85.60;;;;;;5107003;27;20174;-73
2023/06/19 00:38:52;;;;;;;9.80;7.05;;;22.40;85.70;;;;;;5148278;27;20051;-73
2023/06/19 00:41:18;;;;;;;11.48;6.95;;;22.50;85.80;;;;;;5135487;27;20054;-75
2023/06/19 00:43:44;;;;;;;12.18;6.65;;;22.40;85.70;;;;;;5137587;27;20074;-72
2023/06/19 00:46:11;;;;;;;10.27;6.55;;;22.40;85.70;;;;;;5137086;27;20027;-73
2023/06/19 00:48:36;;;;;;;;;;;22.40;85.60;;;;;;5155239;27;20039;-77
2023/06/19 00:51:02;;;;;;;9.23;6.53;;;22.50;85.10;;;;;;5138345;27;19930;-73
2023/06/19 00:53:30;;;;;;;11.02;6.95;;;22.50;85.00;;;;;;5152974;27;20122;-73
2023/06/19 00:55:57;;;;;;;9.15;6.25;;;22.50;84.80;;;;;;5124703;27;20042;-73
2023/06/19 00:58:24;;;;;;;10.82;6.65;;;22.50;84.50;;;;;;5120449;27;20083;-74
2023/06/19 01:00:50;;;;;;;;;;;22.50;84.50;;;;;;5137231;27;20051;-73
2023/06/19 01:03:16;;;;;;;12.38;6.05;;;22.50;84.60;;;;;;5119260;27;19927;-73
2023/06/19 01:05:44;;;;;;;10.13;6.85;;;22.60;84.30;;;;;;5102960;27;20039;-73
2023/06/19 01:08:15;;;;;;;10.55;6.28;;;22.60;84.20;;;;;;5104305;27;20040;-72
2023/06/19 01:10:49;;;;;;;9.75;6.45;;;22.60;84.10;;;;;;5135638;27;20043;-72
2023/06/19 01:13:37;;;;;;;9.68;6.32;;;22.60;84.10;;;;;;5117344;27;20043;-74
2023/06/19 01:16:04;;;;;;;11.77;6.78;;;22.60;84.10;;;;;;5133173;27;20142;-73
2023/06/19 01:18:31;;;;;;;;;;;22.70;83.90;;;;;;5132528;27;20243;-73
2023/06/19 01:21:08;;;;;;;11.90;6.32;;;22.70;84.00;;;;;;5133611;27;20406;-73
2023/06/19 01:23:34;;;;;;;12.13;6.65;;;22.60;84.10;;;;;;5100531;28;20435;-73
2023/06/19 01:25:59;;;;;;;10.57;6.60;;;22.60;84.20;;;;;;5115611;28;20047;-72
2023/06/19 01:28:26;;;;;;;8.97;6.30;;;22.60;84.40;;;;;;5133632;28;20394;-72
2023/06/19 01:30:53;;;;;;;12.10;6.63;;;22.60;84.60;;;;;;5133646;28;20505;-73
2023/06/19 01:33:26;;;;;;;9.90;6.38;;;22.50;84.80;;;;;;5135535;28;20502;-73
2023/06/19 01:35:52;;;;;;;9.90;6.70;;;22.50;85.00;;;;;;5145104;28;20043;-74
2023/06/19 01:38:22;;;;;;;9.40;6.45;;;22.50;85.10;;;;;;5147213;28;20043;-72
2023/06/19 01:40:53;;;;;;;11.65;6.97;;;22.50;85.30;;;;;;5128393;28;20043;-75
2023/06/19 01:43:20;;;;;;;9.63;6.30;;;22.50;85.50;;;;;;5138361;28;20035;-74
2023/06/19 01:45:45;;;;;;;12.63;7.00;;;22.40;85.50;;;;;;5140097;28;20034;-76
2023/06/19 01:48:12;;;;;;;11.20;7.23;;;22.40;86.40;;;;;;5140043;28;20039;-73
2023/06/19 01:50:38;;;;;;;;;;;22.40;86.00;;;;;;5139861;27;20043;-72
2023/06/19 01:53:03;;;;;;;11.02;7.07;;;22.40;86.10;;;;;;5135948;28;20382;-74
2023/06/19 01:55:29;;;;;;;10.33;6.60;;;22.30;86.30;;;;;;5141917;28;20047;-73
2023/06/19 01:57:55;;;;;;;12.55;7.10;;;22.30;86.60;;;;;;5138788;28;20454;-73
2023/06/19 02:00:21;;;;;;;10.20;6.65;;;22.20;87.50;;;;;;5097662;28;20486;-74
2023/06/19 02:02:47;;;;;;;11.37;6.97;;;22.20;86.90;;;;;;5114891;28;20107;-73
2023/06/19 02:05:13;;;;;;;10.07;7.30;;;22.20;87.00;;;;;;5136158;27;20043;-73
2023/06/19 02:07:39;;;;;;;11.27;7.30;;;22.20;87.30;;;;;;5096374;28;20050;-73
2023/06/19 02:10:06;;;;;;;10.33;6.77;;;22.10;88.20;;;;;;5098008;28;20043;-73
2023/06/19 02:12:32;;;;;;;12.00;7.40;;;22.10;87.80;;;;;;5116860;28;20282;-73
2023/06/19 02:14:57;;;;;;;10.07;6.73;;;22.10;87.90;;;;;;5098244;28;20126;-73
2023/06/19 02:17:23;;;;;;;11.90;6.57;;;22.10;88.30;;;;;;5118470;27;20039;-73
2023/06/19 02:19:49;;;;;;;11.33;6.67;;;22.10;88.50;;;;;;5136853;27;20039;-72
2023/06/19 02:22:14;;;;;;;10.17;6.57;;;22.10;88.50;;;;;;5118666;27;20472;-72
2023/06/19 02:24:40;;;;;;;11.43;6.73;;;22.00;88.70;;;;;;5137264;27;20077;-74
2023/06/19 02:27:06;;;;;;;10.23;6.50;;;22.00;89.60;;;;;;5136784;27;20050;-72
2023/06/19 02:29:33;;;;;;;11.05;6.25;;;22.00;89.70;;;;;;5085085;27;20608;-71
2023/06/19 02:31:59;;;;;;;9.82;6.60;;;22.00;90.00;;;;;;5127280;27;20054;-74
2023/06/19 02:34:25;;;;;;;11.02;6.70;;;22.00;90.10;;;;;;5117835;27;20047;-73
2023/06/19 02:36:51;;;;;;;9.63;6.28;;;21.90;90.10;;;;;;5118570;27;20049;-74
2023/06/19 02:39:18;;;;;;;9.00;6.30;;;21.90;90.30;;;;;;5119454;27;20134;-75
2023/06/19 02:41:45;;;;;;;9.75;6.78;;;22.00;90.60;;;;;;5118555;27;20391;-72
2023/06/19 02:44:14;;;;;;;9.55;6.75;;;21.90;90.70;;;;;;5139635;27;20402;-74
2023/06/19 02:46:40;;;;;;;9.43;6.30;;;21.90;90.90;;;;;;5120677;27;20394;-73
2023/06/19 02:49:06;;;;;;;9.70;6.23;;;21.90;91.10;;;;;;5138779;27;20090;-74
2023/06/19 02:51:32;;;;;;;10.93;6.00;;;21.90;91.20;;;;;;5087467;27;20043;-73
2023/06/19 02:53:57;;;;;;;10.65;5.90;;;21.80;91.30;;;;;;5137442;27;20065;-73
2023/06/19 02:56:26;;;;;;;11.67;5.80;;;21.80;91.50;;;;;;5137861;27;20043;-73
2023/06/19 02:58:52;;;;;;;8.45;5.93;;;21.80;92.00;;;;;;5102863;27;20104;-74
2023/06/19 03:01:17;;;;;;;11.27;6.30;;;21.80;91.90;;;;;;5119221;27;20047;-72
2023/06/19 03:03:46;;;;;;;8.43;5.77;;;21.80;92.30;;;;;;5136651;27;20035;-72
2023/06/19 03:06:13;;;;;;;9.55;5.78;;;21.80;92.40;;;;;;5117776;27;20055;-74
2023/06/19 03:08:39;;;;;;;9.15;5.57;;;21.90;92.70;;;;;;5117708;27;20051;-74
2023/06/19 03:11:05;;;;;;;8.88;5.47;;;21.90;93.10;;;;;;5136990;27;20515;-73
2023/06/19 03:13:50;;;;;;;9.57;6.35;;;21.80;92.80;;;;;;5138754;27;20057;-74
2023/06/19 03:16:16;;;;;;;9.35;6.28;;;21.80;93.00;;;;;;5135319;27;20125;-72
2023/06/19 03:18:44;;;;;;;9.23;5.70;;;21.80;93.20;;;;;;5117649;27;20082;-74
2023/06/19 03:21:14;;;;;;;8.35;5.60;;;21.80;93.10;;;;;;5117150;27;20039;-73
2023/06/19 03:23:43;;;;;;;9.00;5.68;;;21.70;94.00;;;;;;5117824;27;20064;-73
2023/06/19 03:26:10;;;;;;;10.35;5.95;;;21.70;93.50;;;;;;5117271;27;20086;-73
2023/06/19 03:28:36;;;;;;;8.63;5.63;;;21.70;93.70;;;;;;5117891;27;20046;-73
2023/06/19 03:31:02;;;;;;;8.13;5.78;;;21.60;94.20;;;;;;5117305;27;20079;-73
2023/06/19 03:33:28;;;;;;;10.23;5.73;;;21.60;94.00;;;;;;5100616;27;20082;-73
2023/06/19 03:35:54;;;;;;;8.38;5.85;;;21.50;94.00;;;;;;5135762;27;20410;-73
2023/06/19 03:38:20;;;;;;;10.65;5.68;;;21.40;94.40;;;;;;5135596;27;20043;-74
2023/06/19 03:40:46;;;;;;;8.43;5.57;;;21.40;94.70;;;;;;5134334;27;20104;-74
2023/06/19 03:43:12;;;;;;;8.73;4.77;;;21.30;94.70;;;;;;5116898;27;20049;-74
2023/06/19 03:45:38;;;;;;;7.63;5.00;;;21.30;95.30;;;;;;5100757;27;20095;-72
2023/06/19 03:48:04;;;;;;;8.60;5.07;;;21.20;95.20;;;;;;5135535;27;20050;-74
2023/06/19 03:50:29;;;;;;;10.00;4.50;;;21.20;95.90;;;;;;5101951;27;20049;-74
2023/06/19 03:52:55;;;;;;;6.77;3.80;;;21.10;97.00;;;;;;5117545;27;20046;-75
2023/06/19 03:55:21;;;;;;;9.07;4.07;;;21.00;96.50;;;;;;5116561;27;20395;-75
2023/06/19 03:57:47;;;;;;;7.37;3.73;;;21.00;96.50;;;;;;5100146;27;20075;-73
2023/06/19 04:00:14;;;;;;;8.40;3.55;;;20.90;96.60;;;;;;5099572;27;20061;-72
2023/06/19 04:02:41;;;;;;;7.43;3.20;;;20.90;97.40;;;;;;5100107;27;20039;-74
2023/06/19 04:05:07;;;;;;;8.45;2.35;;;20.90;97.60;;;;;;5116352;27;20071;-71
2023/06/19 04:07:33;;;;;;;8.00;2.42;;;20.90;98.50;;;;;;5117304;27;20403;-72
2023/06/19 04:09:59;;;;;;;4.20;2.20;;;20.80;99.80;;;;;;5135651;27;20043;-72
2023/06/19 04:12:25;;;;;;;6.50;2.38;;;20.80;99.70;;;;;;5134926;27;20285;-74
2023/06/19 04:14:50;;;;;;;5.83;1.97;;;20.80;99.90;;;;;;5099828;27;20456;-73
2023/06/19 04:17:17;;;;;;;5.33;2.43;;;20.80;99.90;;;;;;5134243;27;20043;-75
2023/06/19 04:19:42;;;;;;;4.55;1.95;;;20.80;99.90;;;;;;5116747;27;20340;-73
2023/06/19 04:22:08;;;;;;;5.40;1.63;;;20.80;99.90;;;;;;5115834;27;20051;-73
2023/06/19 04:24:35;;;;;;;5.50;2.00;;;20.80;99.90;;;;;;5116110;27;20126;-75
2023/06/19 04:27:01;;;;;;;6.78;1.73;;;20.80;99.90;;;;;;5099152;27;20047;-75
2023/06/19 04:29:31;;;;;;;8.13;2.10;;;20.80;99.90;;;;;;5098974;27;20043;-75
2023/06/19 04:31:58;;;;;;;4.53;1.83;;;20.80;99.90;;;;;;5115985;27;20047;-75
2023/06/19 04:34:25;;;;;;;4.45;1.95;;;20.80;99.90;;;;;;5133757;27;20074;-75
2023/06/19 04:36:51;;;;;;;5.10;2.00;;;20.80;99.90;;;;;;5116250;27;20047;-74
2023/06/19 04:39:17;;;;;;;6.75;2.30;;;20.80;99.90;;;;;;5115897;27;20103;-77
2023/06/19 04:41:43;;;;;;;6.30;2.17;;;20.70;99.90;;;;;;5134272;27;20086;-74
2023/06/19 04:44:13;;;;;;;4.97;2.33;;;20.60;99.90;;;;;;5115394;27;20039;-76
2023/06/19 04:46:38;;;;;;;4.03;2.22;;;20.60;99.90;;;;;;5115945;27;20047;-72
2023/06/19 04:49:05;;;;;;;5.50;2.17;;;20.60;99.90;;;;;;5133825;27;20095;-77
2023/06/19 04:51:32;;;;;;;5.03;2.63;;;20.50;99.90;;;;;;5099097;27;20068;-74
2023/06/19 04:54:02;;;;;;;4.82;2.08;;;20.50;99.90;;;;;;5082373;27;20130;-73
2023/06/19 04:56:28;;;;;;;4.68;2.53;;;20.50;99.90;;;;;;5133843;27;20047;-73
2023/06/19 04:58:56;;;;;;;5.47;2.55;;;20.50;99.90;;;;;;5095571;28;20065;-73
2023/06/19 05:01:27;;;;;;;5.88;2.70;;;20.60;99.90;;;;;;5095384;28;20104;-74
2023/06/19 05:03:54;;;;;;;4.60;2.60;;;20.60;99.90;;;;;;5113495;28;20040;-75
2023/06/19 05:06:20;;;;;;;;;;;20.60;99.90;;;;;;5113319;28;20062;-74
2023/06/19 05:08:45;;;;;;;8.35;2.30;;;20.60;99.90;;;;;;5112099;28;20010;-74
2023/06/19 05:11:11;;;;;;;6.87;2.50;;;20.60;99.90;;;;;;5112739;28;20048;-74
2023/06/19 05:13:37;;;;;;;5.00;2.93;;;20.60;99.90;;;;;;5094092;28;20083;-71
2023/06/19 05:16:03;;;;;;;7.00;2.47;;;20.70;99.90;;;;;;5110887;28;20047;-72
2023/06/19 05:18:28;;;;;;;4.80;2.37;;;20.70;99.90;;;;;;5094917;28;20055;-73
2023/06/19 05:20:54;;;;;;;5.47;2.93;;;20.70;99.90;;;;;;5078259;28;20483;-72
2023/06/19 05:23:20;;;;;;;8.00;2.80;;;20.70;99.90;;;;;;5112499;28;20082;-76
2023/06/19 05:25:45;;;;;;;5.73;3.30;;;20.80;99.90;;;;;;5111546;28;20083;-74
2023/06/19 05:28:11;;;;;;;4.70;2.90;;;20.90;99.90;;;;;;5094419;28;20078;-73
2023/06/19 05:30:37;;;;;;;5.63;3.10;;;20.90;99.90;;;;;;5113303;28;20047;-73
2023/06/19 05:33:03;;;;;;;5.30;2.90;;;21.10;99.90;;;;;;5113059;28;20092;-74
2023/06/19 05:35:30;;;;;;;6.60;2.70;;;21.20;99.90;;;;;;5074245;28;20048;-75
2023/06/19 05:37:56;;;;;;;5.55;2.90;;;21.30;99.90;;;;;;5092620;28;20051;-74
2023/06/19 05:40:21;;;;;;;7.53;2.80;;;21.40;99.90;;;;;;5094261;28;20036;-74
2023/06/19 05:42:47;;;;;;;6.63;3.03;;;21.50;99.90;;;;;;5095256;28;20056;-72
2023/06/19 05:45:13;;;;;;;4.67;3.00;;;21.60;99.90;;;;;;5096491;28;20050;-71
2023/06/19 05:47:39;;;;;;;7.33;3.23;;;21.60;99.90;;;;;;5096431;28;20054;-73
2023/06/19 05:50:05;;;;;;;4.53;2.83;;;21.60;99.90;;;;;;5096597;28;20069;-72
2023/06/19 05:52:31;;;;;;;4.32;2.47;;;21.60;99.90;;;;;;5112033;28;20449;-73
2023/06/19 05:54:58;;;;;;;5.63;2.70;;;21.70;99.90;;;;;;5078696;28;20113;-73
2023/06/19 05:57:24;;;;;;;5.10;2.70;;;21.70;99.90;;;;;;5095927;28;20393;-72
2023/06/19 05:59:50;;;;;;;4.80;2.30;;;21.80;99.90;;;;;;5109067;28;20056;-75
2023/06/19 06:02:18;;;;;;;7.03;2.60;;;21.70;99.90;;;;;;5116353;28;20380;-73
2023/06/19 06:04:44;;;;;;;6.65;3.03;;;21.80;99.90;;;;;;5115705;28;20123;-73
2023/06/19 06:07:10;;;;;;;3.90;2.13;;;21.90;99.90;;;;;;5115763;28;20135;-73
2023/06/19 06:09:35;;;;;;;7.00;3.00;;;22.00;99.90;;;;;;5116157;28;20093;-73
2023/06/19 06:12:01;;;;;;;6.60;3.17;;;22.00;99.90;;;;;;5098468;28;20109;-73
2023/06/19 06:14:27;;;;;;;5.80;3.43;;;22.00;99.90;;;;;;5114904;28;20054;-72
2023/06/19 06:16:53;;;;;;;7.87;4.03;;;22.00;99.90;;;;;;5115160;28;20052;-74
2023/06/19 06:19:23;;;;;;;6.63;3.90;;;22.00;99.90;;;;;;5116054;28;20143;-73
2023/06/19 06:21:49;;;;;;;6.10;4.15;;;22.20;99.90;;;;;;5116413;28;20051;-73
2023/06/19 06:24:15;;;;;;;6.68;3.90;;;22.20;99.90;;;;;;5098101;28;20047;-73
2023/06/19 06:26:41;;;;;;;5.88;3.50;;;22.10;99.90;;;;;;5116230;28;20051;-74
2023/06/19 06:29:08;;;;;;;5.90;3.97;;;22.10;99.90;;;;;;5115200;28;20044;-72
2023/06/19 06:31:34;;;;;;;6.78;3.53;;;22.10;99.90;;;;;;5115565;28;20043;-74
2023/06/19 06:34:00;;;;;;;8.40;4.57;;;22.00;99.90;;;;;;5116026;28;20503;-75
2023/06/19 06:36:25;;;;;;;8.27;4.23;;;21.90;99.90;;;;;;5115874;28;20048;-73
2023/06/19 06:38:51;;;;;;;6.23;4.17;;;21.80;99.90;;;;;;5115351;28;20050;-75
2023/06/19 06:41:17;;;;;;;7.23;4.83;;;21.70;99.90;;;;;;5114891;28;20084;-74
2023/06/19 06:43:43;;;;;;;7.03;4.40;;;21.70;99.90;;;;;;5097538;28;20043;-72
2023/06/19 06:46:10;;;;;;;7.10;4.60;;;21.70;99.90;;;;;;5115073;28;20040;-74
2023/06/19 06:48:39;;;;;;;8.85;4.85;;;21.70;99.90;;;;;;5114263;28;20799;-74
2023/06/19 06:51:05;;;;;;;8.23;5.15;;;21.70;99.90;;;;;;5077006;28;20051;-71
2023/06/19 06:53:34;;;;;;;7.33;4.90;;;21.60;99.90;;;;;;5095148;28;20032;-75
2023/06/19 06:56:00;;;;;;;9.05;5.10;;;21.60;99.90;;;;;;5094098;28;20109;-73
2023/06/19 06:58:26;;;;;;;8.30;5.33;;;21.60;99.90;;;;;;5094275;28;20484;-71
2023/06/19 07:00:53;;;;;;;7.07;4.75;;;21.60;99.90;;;;;;5097581;28;20047;-74
2023/06/19 07:03:18;;;;;;;10.77;5.25;;;21.60;99.90;;;;;;5115821;28;20043;-73
2023/06/19 07:05:44;;;;;;;7.87;4.30;;;21.60;99.90;;;;;;5097129;28;20039;-73
2023/06/19 07:08:10;;;;;;;9.50;5.10;;;21.70;99.90;;;;;;5114936;27;20486;-75
2023/06/19 07:10:36;;;;;;;10.05;4.90;;;21.70;99.90;;;;;;5102402;27;20064;-73
2023/06/19 07:13:02;;;;;;;9.33;4.97;;;21.80;99.90;;;;;;5120328;27;20055;-74
2023/06/19 07:15:28;;;;;;;7.00;4.53;;;21.80;99.90;;;;;;5101073;27;20074;-75
2023/06/19 07:17:53;;;;;;;7.60;4.50;;;21.90;99.90;;;;;;5136320;27;20162;-74
2023/06/19 07:20:19;;;;;;;6.13;4.00;;;21.90;99.90;;;;;;5136023;27;20043;-74
2023/06/19 07:22:46;;;;;;;6.73;4.77;;;22.00;99.90;;;;;;5117555;27;20051;-74
2023/06/19 07:25:12;;;;;;;6.57;4.68;;;22.10;99.90;;;;;;5117311;27;20047;-75
2023/06/19 07:27:39;;;;;;;7.93;4.93;;;22.00;99.90;;;;;;5135340;27;20521;-72
2023/06/19 07:30:06;;;;;;;9.40;4.57;;;21.90;99.90;;;;;;5136106;27;20051;-73
2023/06/19 07:32:31;;;;;;;6.82;4.20;;;21.90;99.90;;;;;;5135297;27;20162;-74
2023/06/19 07:34:57;;;;;;;9.23;4.50;;;21.80;99.90;;;;;;5135641;27;20064;-72
2023/06/19 07:37:23;;;;;;;6.70;3.97;;;21.80;99.90;;;;;;5117229;27;20058;-73
2023/06/19 07:39:50;;;;;;;8.07;4.43;;;21.80;99.90;;;;;;5135623;27;20050;-73
2023/06/19 07:42:17;;;;;;;9.07;4.43;;;21.90;99.90;;;;;;5135458;27;20043;-74
2023/06/19 07:44:43;;;;;;;;;;;22.10;99.90;;;;;;5135681;27;20038;-75
2023/06/19 07:47:09;;;;;;;9.35;5.65;;;22.20;99.90;;;;;;5135332;27;19920;-74
2023/06/19 07:49:35;;;;;;;6.80;4.70;;;22.40;99.90;;;;;;5099750;27;20044;-75
2023/06/19 07:52:01;;;;;;;8.85;6.38;;;22.50;99.90;;;;;;5117028;27;20043;-74
2023/06/19 07:54:27;;;;;;;11.02;7.10;;;22.50;99.90;;;;;;5083281;27;20054;-79
2023/06/19 07:56:53;;;;;;;12.03;6.43;;;22.60;99.90;;;;;;5100170;27;20043;-75
2023/06/19 07:59:19;;;;;;;7.80;5.17;;;22.60;99.90;;;;;;5134775;27;20051;-74
2023/06/19 08:01:45;;;;;;;6.53;4.32;;;22.70;99.90;;;;;;5081952;27;20047;-72
2023/06/19 08:04:10;;;;;;;7.20;4.97;;;22.80;99.90;;;;;;5116545;27;20041;-73
2023/06/19 08:06:36;;;;;;;10.23;5.07;;;22.90;99.90;;;;;;5099468;27;20395;-74
2023/06/19 08:09:03;;;;;;;8.83;4.93;;;23.00;99.90;;;;;;5135015;27;20047;-72
2023/06/19 08:11:28;;;;;;;9.23;5.32;;;23.10;99.90;;;;;;5116299;27;20126;-73
2023/06/19 08:13:54;;;;;;;12.05;5.22;;;23.30;99.90;;;;;;5116670;27;20499;-72
2023/06/19 08:16:20;;;;;;;9.47;5.40;;;23.30;99.90;;;;;;5117255;27;20046;-75
2023/06/19 08:18:47;;;;;;;7.95;5.07;;;23.30;99.90;;;;;;5116905;27;20285;-72
2023/06/19 08:21:13;;;;;;;8.73;5.25;;;23.20;99.90;;;;;;5099579;27;20392;-72
2023/06/19 08:23:40;;;;;;;7.43;4.75;;;23.00;99.90;;;;;;5133982;27;20035;-73
2023/06/19 08:26:07;;;;;;;;;;;22.90;99.90;;;;;;5116725;27;20054;-73
2023/06/19 08:28:33;;;;;;;9.60;5.28;;;22.70;99.90;;;;;;5115935;27;19968;-75
2023/06/19 08:30:59;;;;;;;10.60;5.35;;;22.60;99.90;;;;;;5099313;27;20047;-75
2023/06/19 08:33:25;;;;;;;8.93;6.03;;;22.50;99.90;;;;;;5099566;27;20043;-73
2023/06/19 08:35:51;;;;;;;8.93;5.70;;;22.40;99.90;;;;;;5132042;27;20277;-73
2023/06/19 08:38:17;;;;;;;8.50;6.27;;;22.40;99.90;;;;;;5115592;27;20069;-76
2023/06/19 08:40:43;;;;;;;11.57;7.57;;;22.40;99.90;;;;;;5133101;27;20046;-72
2023/06/19 08:43:09;;;;;;;10.63;7.70;;;22.60;99.90;;;;;;5134418;27;20051;-72
2023/06/19 08:45:35;;;;;;;12.73;8.50;;;22.70;99.90;;;;;;5133803;27;20049;-74
2023/06/19 08:48:05;;;;;;;10.63;6.80;;;23.00;99.90;;;;;;5115970;27;20065;-77
2023/06/19 08:50:31;;;;;;;10.05;7.13;;;23.30;99.90;;;;;;5115869;27;20047;-74
2023/06/19 08:52:57;;;;;;;9.48;7.10;;;23.70;99.90;;;;;;5115681;27;20083;-73
2023/06/19 08:55:23;;;;;;;10.10;6.37;;;23.80;99.90;;;;;;5134040;27;20074;-74
2023/06/19 08:57:50;;;;;;;9.02;6.93;;;23.90;99.90;;;;;;5098674;28;20074;-75
2023/06/19 09:00:27;;;;;;;10.57;7.35;;;24.00;99.90;;;;;;5133942;27;20134;-74
2023/06/19 09:03:02;;;;;;;10.00;7.18;;;24.10;99.90;;;;;;5115165;27;20043;-73
2023/06/19 09:05:28;;;;;;;8.23;6.68;;;24.20;99.90;;;;;;5115612;27;20043;-74
2023/06/19 09:07:56;;;;;;;9.05;6.45;;;24.20;99.90;;;;;;5118603;27;20044;-75
2023/06/19 09:10:23;;;;;;;9.27;6.25;;;24.40;99.90;;;;;;5095412;28;20044;-74
2023/06/19 09:12:58;;;;;;;9.32;7.38;;;24.40;99.90;;;;;;5112096;28;20059;-74
2023/06/19 09:15:27;;;;;;;10.15;7.40;;;24.50;99.90;;;;;;5077591;28;20387;-74
2023/06/19 09:18:08;;;;;;;12.88;7.93;;;24.40;99.90;;;;;;5094717;28;20073;-72
2023/06/19 09:20:38;;;;;;;9.75;7.70;;;24.40;99.90;;;;;;5113924;28;20043;-73
2023/06/19 09:23:04;;;;;;;10.05;7.90;;;24.30;99.90;;;;;;5121790;27;20046;-72
2023/06/19 09:25:30;;;;;;;11.23;8.10;;;24.20;99.90;;;;;;5116532;28;20035;-74
2023/06/19 09:27:57;;;;;;;10.07;7.97;;;24.00;99.90;;;;;;5133415;28;20790;-75
2023/06/19 09:30:23;;;;;;;;;;;24.10;99.90;;;;;;5134026;28;20950;-73
2023/06/19 09:32:49;;;;;;;9.25;8.00;;;24.00;99.90;;;;;;5133543;28;19919;-74
2023/06/19 09:35:15;;;;;;;9.77;7.25;;;23.90;99.90;;;;;;5098603;28;20061;-72
2023/06/19 09:37:41;;;;;;;8.63;6.68;;;23.90;99.90;;;;;;5133119;28;20440;-74
2023/06/19 09:40:10;;;;;;;8.80;6.07;;;24.00;99.90;;;;;;5115453;28;20078;-74
2023/06/19 09:42:42;;;;;;;7.15;4.55;;;24.10;99.90;;;;;;5133358;28;20126;-76
2023/06/19 09:45:11;;;;;;;6.00;3.88;;;24.00;99.90;;;;;;5133778;28;20093;-72
2023/06/19 09:47:37;;;;;;;6.60;4.15;;;24.00;99.90;;;;;;5115188;28;20043;-73
2023/06/19 09:50:04;;;;;;;7.32;4.55;;;24.10;99.90;;;;;;5133215;28;20039;-73
2023/06/19 09:52:30;;;;;;;6.47;4.57;;;24.10;99.90;;;;;;5133669;28;20139;-72
2023/06/19 09:54:57;;;;;;;6.10;4.25;;;24.10;99.90;;;;;;5132964;28;20050;-73
2023/06/19 09:57:23;;;;;;;7.63;4.40;;;24.30;99.90;;;;;;5132932;28;20100;-74
2023/06/19 09:59:59;;;;;;;8.82;4.22;;;24.30;99.90;;;;;;5132635;28;20051;-74
2023/06/19 10:02:27;;;;;;;8.53;5.10;;;24.50;99.90;;;;;;5114655;28;20055;-73
2023/06/19 10:04:56;;;;;;;8.32;4.80;;;24.60;99.90;;;;;;5132986;28;20035;-73
2023/06/19 10:07:34;;;;;;;8.70;5.45;;;24.70;99.80;;;;;;5133225;28;20079;-72
2023/06/19 10:10:05;;;;;;;11.45;5.90;;;24.70;99.90;;;;;;5133018;28;20043;-74
2023/06/19 10:12:58;;;;;;;8.13;5.30;;;24.70;99.90;;;;;;5114986;28;20100;-73
2023/06/19 10:15:26;;;;;;;9.20;5.10;;;24.60;99.80;;;;;;5128475;28;20051;-73
2023/06/19 10:18:03;;;;;;;12.13;6.70;;;24.60;99.80;;;;;;5132254;28;20111;-72
2023/06/19 10:20:32;;;;;;;11.05;7.03;;;24.60;99.90;;;;;;5133174;28;20453;-72
2023/06/19 10:23:12;;;;;;;13.65;8.13;;;24.50;99.90;;;;;;5132525;28;20122;-72
2023/06/19 10:25:41;;;;;;;13.05;8.48;;;24.40;99.90;;;;;;5117078;27;20071;-72
2023/06/19 10:28:17;;;;;;;11.93;8.05;;;24.30;99.90;;;;;;5136507;27;20115;-73
2023/06/19 10:30:42;;;;;;;13.45;7.95;;;24.00;99.90;;;;;;5136452;27;20047;-73
2023/06/19 10:33:08;;;;;;;13.63;8.13;;;24.20;99.90;;;;;;5136867;27;20391;-73
2023/06/19 10:35:39;;;;;;;15.10;8.27;;;24.40;99.90;;;;;;5118527;27;20396;-73
2023/06/19 10:38:05;;;;;;;11.32;7.57;;;24.40;99.90;;;;;;5131415;27;20040;-72
2023/06/19 10:40:31;;;;;;;12.15;7.40;;;24.60;99.90;;;;;;5097984;28;20082;-73
2023/06/19 10:42:57;;;;;;;14.87;7.90;;;24.70;99.90;;;;;;5080619;28;20079;-74
2023/06/19 10:45:28;;;;;;;14.00;7.00;;;24.80;99.70;;;;;;5080845;28;20043;-72
2023/06/19 10:47:55;;;;;;;10.90;7.00;;;24.90;99.40;;;;;;5087133;27;20085;-73
2023/06/19 10:50:22;;;;;;;12.63;6.75;;;25.10;99.40;;;;;;5136620;27;20055;-75
2023/06/19 10:52:52;;;;;;;10.63;6.70;;;25.20;99.10;;;;;;5136565;27;20054;-74
2023/06/19 10:55:18;;;;;;;11.63;5.82;;;25.30;98.70;;;;;;5136519;27;20047;-72
2023/06/19 10:57:48;;;;;;;10.13;5.27;;;25.40;98.70;;;;;;5101104;27;20050;-73
2023/06/19 11:00:33;;;;;;;9.35;6.60;;;25.40;98.70;;;;;;5136074;27;20097;-72
2023/06/19 11:02:59;;;;;;;9.70;6.47;;;25.40;97.90;;;;;;5100781;27;20043;-74
2023/06/19 11:05:27;;;;;;;10.80;6.40;;;25.10;97.70;;;;;;5135879;27;20035;-71
2023/06/19 11:07:57;;;;;;;10.38;7.20;;;25.20;97.50;;;;;;5127304;27;20282;-74
2023/06/19 11:10:26;;;;;;;12.25;6.03;;;25.20;97.90;;;;;;5080751;28;20086;-73
2023/06/19 11:12:59;;;;;;;10.70;6.63;;;25.20;97.70;;;;;;5114490;28;20086;-73
2023/06/19 11:15:32;;;;;;;13.15;6.95;;;25.10;97.50;;;;;;5097633;28;20044;-72
2023/06/19 11:17:59;;;;;;;10.45;7.53;;;24.90;97.50;;;;;;5115207;28;20048;-73
2023/06/19 11:20:25;;;;;;;13.02;7.18;;;24.80;97.60;;;;;;5115341;28;20047;-74
2023/06/19 11:22:56;;;;;;;13.25;7.85;;;24.60;98.10;;;;;;5111377;27;20126;-73
2023/06/19 11:25:22;;;;;;;13.57;7.97;;;24.60;98.30;;;;;;5135929;27;20035;-72
2023/06/19 11:27:51;;;;;;;14.13;8.18;;;24.80;97.60;;;;;;5135932;27;20112;-71
2023/06/19 11:30:20;;;;;;;12.10;7.57;;;24.90;97.80;;;;;;5117045;27;20043;-72
2023/06/19 11:32:48;;;;;;;11.68;7.60;;;24.90;97.60;;;;;;5117402;27;20054;-73
2023/06/19 11:35:16;;;;;;;11.52;7.88;;;24.80;97.90;;;;;;5117000;27;20125;-72
2023/06/19 11:37:43;;;;;;;13.20;8.27;;;24.90;97.90;;;;;;5132721;27;20084;-73
2023/06/19 11:40:14;;;;;;;13.43;7.63;;;24.70;97.90;;;;;;5116546;27;20498;-73
2023/06/19 11:42:48;;;;;;;13.38;7.45;;;24.60;98.30;;;;;;5117813;27;20051;-72
2023/06/19 11:45:14;;;;;;;10.60;6.85;;;25.00;98.20;;;;;;5116552;27;20122;-74
2023/06/19 11:47:39;;;;;;;10.45;7.40;;;25.10;97.90;;;;;;5135224;27;20534;-73
2023/06/19 11:50:06;;;;;;;14.30;9.43;;;25.30;97.20;;;;;;5134772;27;20075;-73
2023/06/19 11:52:32;;;;;;;;;;;24.90;97.80;;;;;;5100507;27;20046;-73
2023/06/19 11:54:57;;;;;;;11.35;8.00;;;25.30;97.90;;;;;;5099894;27;19920;-79
2023/06/19 11:57:23;;;;;;;12.65;8.68;;;25.30;97.80;;;;;;5116904;27;20126;-73
2023/06/19 11:59:49;;;;;;;11.40;7.13;;;25.40;97.70;;;;;;5116258;27;20095;-74
2023/06/19 12:02:15;;;;;;;13.97;7.33;;;25.40;97.10;;;;;;5133933;27;20195;-72
2023/06/19 12:04:40;;;;;;;12.07;7.55;;;25.30;97.60;;;;;;5135004;27;20039;-73
2023/06/19 12:07:07;;;;;;;12.33;7.60;;;25.80;97.50;;;;;;5099662;27;20046;-73
2023/06/19 12:09:33;;;;;;;13.07;8.93;;;25.90;97.60;;;;;;5090294;28;20282;-71
2023/06/19 12:12:00;;;;;;;13.98;8.80;;;25.90;96.80;;;;;;5096297;28;20055;-80
2023/06/19 12:14:26;;;;;;;14.80;8.60;;;26.00;97.00;;;;;;5115444;27;20120;-72
2023/06/19 12:16:52;;;;;;;15.45;8.68;;;26.10;96.40;;;;;;5134612;27;20483;-74
2023/06/19 12:19:19;;;;;;;12.00;7.57;;;25.90;96.60;;;;;;5116089;27;20516;-74
2023/06/19 12:21:44;;;;;;;13.73;8.55;;;25.90;96.20;;;;;;5135009;27;20490;-73
2023/06/19 12:24:10;;;;;;;14.57;9.10;;;26.00;96.40;;;;;;5134145;27;20046;-72
2023/06/19 12:26:36;;;;;;;16.23;9.30;;;25.70;95.80;;;;;;5116273;27;20050;-73
2023/06/19 12:29:06;;;;;;;13.27;8.30;;;25.90;96.20;;;;;;5115973;27;20505;-74
2023/06/19 12:31:34;;;;;;;10.07;6.82;;;26.10;96.20;;;;;;5133927;27;20166;-73
2023/06/19 12:34:01;;;;;;;13.45;6.90;;;26.20;95.10;;;;;;5099514;27;20051;-74
2023/06/19 12:36:27;;;;;;;12.93;7.97;;;26.20;94.60;;;;;;5099034;27;20097;-73
2023/06/19 12:38:54;;;;;;;13.48;8.07;;;26.10;94.50;;;;;;5115837;27;20054;-74
2023/06/19 12:41:23;;;;;;;17.25;9.43;;;26.10;94.40;;;;;;5115734;27;20039;-73
2023/06/19 12:43:48;;;;;;;15.30;10.00;;;26.10;94.80;;;;;;5134117;27;20047;-72
2023/06/19 12:46:14;;;;;;;15.30;8.70;;;26.10;95.60;;;;;;5115545;27;20395;-73